AirNav   Duncan Aviation - Near you to keep you flying
 
 944 users online  

20XS Klutts Field Airport
Chisholm, Texas, USA

GOING TO CHISHOLM?


FAA INFORMATION EFFECTIVE 04 NOVEMBER 2021

Location

FAA Identifier: 20XS
Lat/Long: 32-50-07.0200N 096-22-43.4300W
32-50.117000N 096-22.723833W
32.8352833,-96.3787306
(estimated)
Elevation: 495 ft. / 151 m (estimated)
Variation: 06E (1985)
From city: 1 mile SE of CHISHOLM, TX
Time zone: UTC -6 (UTC -5 during Daylight Saving Time)
Zip code: 75032

Airport Operations

Airport use: Private use. Permission required prior to landing
Activation date: 09/1983
Control tower: no
ARTCC: FORT WORTH CENTER
FSS: FORT WORTH FLIGHT SERVICE STATION
Attendance: UNATNDD
Wind indicator: yes
Segmented circle: no

Airport Communications

WX AWOS-3 at F46 (6 nm NW): 121.25 (972-772-6699)
WX AWOS-3 at HQZ (9 nm SW): 118.175 (972-222-7631)
WX ASOS at TRL (9 nm SE): 119.275 (972-551-1334)

Nearby radio navigation aids

VOR radial/distance  VOR name  Freq  Var
CVEr091/26.7COWBOY VOR/DME116.2006E
TTTr087/33.4MAVERICK VOR/DME113.1006E
CQYr342/39.8CEDAR CREEK VORTAC114.8006E

 
NDB name  Hdg/Dist  Freq  Var  ID
MESQUITE075/7.724803EPQF .--. --.- ..-.

Airport Services

Runway Information

Runway 18/36

Dimensions: 1800 x 80 ft. / 549 x 24 m
Surface: turf
RUNWAY 18  RUNWAY 36
Traffic pattern: leftleft
Obstructions: none295 ft. twr, 5290 ft. from runway

Airport Ownership and Management from official FAA records

Ownership: Privately-owned
Owner: JERRY L. KLUTTS
550 KLUTTS DR.
ROCKWELL, TX 75032
Phone (972) 213-5835
Manager: RITA C. KLUTTS
550 KLUTTS DR.
ROCKWELL, TX 75032
Phone (972) 213-5835

Airport Operational Statistics

Aircraft based on the field: 8
Single engine airplanes: 8
    

Additional Remarks

FOR CD CTC REGIONAL APCH AT 972-615-2799.

Instrument Procedures

There are no published instrument procedures at 20XS.

Some nearby airports with instrument procedures:

F46 - Ralph M Hall/Rockwall Municipal Airport (6 nm NW)
KHQZ - Mesquite Metro Airport (9 nm SW)
KTRL - Terrell Municipal Airport (9 nm SE)
7F3 - Caddo Mills Municipal Airport (14 nm NE)
KGVT - Majors Airport (21 nm NE)
 
Loc | Ops | Rwys | IFR | FBO | Links
Com | Nav | Svcs | Stats | Notes

City of Fort Worth
 
Area around 20XS (Klutts Field Airport)
 
Road maps at: MapQuest Bing Google
 
Aerial photo
No photo
 
Sectional chart

 
Airport distance calculator
Flying to Klutts Field Airport? Find the distance to fly.

From to 20XS

Sunrise and sunset
Times for 30-Nov-2021
 Local
(UTC-6)
 Zulu
(UTC)
Morning civil twilight06:4312:43
Sunrise07:1013:10
Sunset17:1823:18
Evening civil twilight17:4523:45

Current date and time
Zulu (UTC)  01-Dec-2021 04:40:32
Local (UTC-6)  30-Nov-2021 22:40:32
 
METAR
KF46 
6nm NW 
010415Z AUTO 19007KT 10SM CLR 14/10 A3008 RMK AO2 T01400102
KTRL 
9nm SE 
010353Z AUTO 18006KT 10SM CLR 12/11 A3009 RMK AO2 SLP185 T01220106
KHQZ 
9nm SW 
010415Z AUTO 17005KT 10SM CLR 13/09 A3008 RMK AO1 T01310091
TAF
KDAL 
24nm W 
010255Z 0103/0124 18010KT P6SM FEW250 FM011400 26009KT P6SM FEW250 FM011900 32008KT P6SM FEW250
NOTAMs
Click for the latest NOTAMs
NOTAMs are issued by the DoD/FAA and will open in a separate window not controlled by AirNav.

 

 
 

Would you like to see your business listed on this page?

 If your business provides an interesting product or service to pilots, flight crews, aircraft, or users of the Klutts Field Airport, you should consider listing it here.  To start the listing process, click on the button below
 
Add a business
 

Other Pages about Klutts Field Airport

Update a link
 
Copyright © AirNav, LLC. All rights reserved. Privacy Policy  Contact